createdAt,value
2018-07-20T00:00:16.089Z,0
2018-07-20T00:01:16.353Z,0
2018-07-20T00:02:16.079Z,0
2018-07-20T00:03:16.331Z,0
2018-07-20T00:04:16.333Z,0
2018-07-20T00:05:16.313Z,0
2018-07-20T00:06:16.304Z,0
2018-07-20T00:07:16.304Z,0
2018-07-20T00:08:16.139Z,0
2018-07-20T00:09:16.289Z,0
2018-07-20T00:10:16.283Z,0
2018-07-20T00:11:16.275Z,0
2018-07-20T00:12:16.270Z,0
2018-07-20T00:13:16.304Z,0
2018-07-20T00:14:16.262Z,0
2018-07-20T00:15:16.256Z,0
2018-07-20T00:16:15.729Z,0
2018-07-20T00:17:15.984Z,0
2018-07-20T00:18:16.230Z,0
2018-07-20T00:19:16.224Z,0
2018-07-20T00:20:15.709Z,0
2018-07-20T00:21:15.955Z,0
2018-07-20T00:22:16.544Z,0
2018-07-20T00:23:16.195Z,0
2018-07-20T00:24:15.938Z,0
2018-07-20T00:25:15.923Z,0
2018-07-20T00:26:15.927Z,0
2018-07-20T00:27:15.656Z,0
2018-07-20T00:28:16.168Z,0
2018-07-20T00:29:15.901Z,0
2018-07-20T00:30:16.169Z,0
2018-07-20T00:31:16.147Z,0
2018-07-20T00:32:15.881Z,0
2018-07-20T00:33:16.136Z,0
2018-07-20T00:34:16.124Z,0
2018-07-20T00:35:15.863Z,0
2018-07-20T00:36:16.123Z,0
2018-07-20T00:37:16.112Z,0
2018-07-20T00:38:15.841Z,0
2018-07-20T00:39:16.098Z,0
2018-07-20T00:40:16.085Z,0
2018-07-20T00:41:16.128Z,0
2018-07-20T00:42:16.120Z,0
2018-07-20T00:43:16.064Z,0
2018-07-20T00:44:15.799Z,0
2018-07-20T00:45:16.054Z,0
2018-07-20T00:46:16.038Z,0
2018-07-20T00:47:15.788Z,0
2018-07-20T00:48:16.026Z,0
2018-07-20T00:49:15.772Z,0
2018-07-20T00:50:15.756Z,0
2018-07-20T00:51:16.056Z,0
2018-07-20T00:52:15.491Z,0
2018-07-20T00:53:16.004Z,0
2018-07-20T00:54:15.479Z,0
2018-07-20T00:55:15.730Z,0
2018-07-20T00:56:15.973Z,0
2018-07-20T00:57:15.710Z,0
2018-07-20T00:58:15.962Z,0
2018-07-20T00:59:15.958Z,0
2018-07-20T01:00:15.943Z,0
2018-07-20T01:01:15.943Z,0
2018-07-20T01:02:15.933Z,0
2018-07-20T01:03:15.924Z,0
2018-07-20T01:04:15.924Z,0
2018-07-20T01:05:15.916Z,0
2018-07-20T01:06:15.646Z,0
2018-07-20T01:07:15.899Z,0
2018-07-20T01:08:15.639Z,0
2018-07-20T01:09:15.890Z,0
2018-07-20T01:10:15.896Z,0
2018-07-20T01:11:15.874Z,0
2018-07-20T01:12:15.609Z,0
2018-07-20T01:13:15.602Z,0
2018-07-20T01:14:15.645Z,0
2018-07-20T01:15:15.589Z,0
2018-07-20T01:16:15.836Z,0
2018-07-20T01:17:15.575Z,0
2018-07-20T01:18:15.818Z,0
2018-07-20T01:19:15.554Z,0
2018-07-20T01:20:15.558Z,0
2018-07-20T01:21:15.552Z,0
2018-07-20T01:22:15.793Z,0
2018-07-20T01:23:15.794Z,0
2018-07-20T01:24:15.528Z,0
2018-07-20T01:25:15.773Z,0
2018-07-20T01:26:15.768Z,0
2018-07-20T01:27:15.774Z,0
2018-07-20T01:28:15.752Z,0
2018-07-20T01:29:15.750Z,0
2018-07-20T01:30:15.740Z,0
2018-07-20T01:31:15.758Z,0
2018-07-20T01:32:15.725Z,0
2018-07-20T01:33:15.458Z,0
2018-07-20T01:34:15.707Z,0
2018-07-20T01:35:15.719Z,0
2018-07-20T01:36:15.691Z,0
2018-07-20T01:37:15.691Z,0
2018-07-20T01:38:15.679Z,0
2018-07-20T01:39:15.672Z,0
2018-07-20T01:40:15.408Z,0
2018-07-20T01:41:15.662Z,0
2018-07-20T01:42:15.667Z,0
2018-07-20T01:43:15.391Z,0
2018-07-20T01:44:15.382Z,0
2018-07-20T01:45:15.116Z,0
2018-07-20T01:46:15.368Z,0
2018-07-20T01:47:15.611Z,0
2018-07-20T01:48:15.606Z,0
2018-07-20T01:49:15.597Z,0
2018-07-20T01:50:15.337Z,0
2018-07-20T01:51:15.587Z,0
2018-07-20T01:52:15.579Z,0
2018-07-20T01:53:15.312Z,0
2018-07-20T01:54:15.568Z,0
2018-07-20T01:55:15.557Z,0
2018-07-20T01:56:15.549Z,0
2018-07-20T01:57:15.558Z,0
2018-07-20T01:58:15.537Z,0
2018-07-20T01:59:15.017Z,0
2018-07-20T02:00:15.006Z,0
2018-07-20T02:01:15.510Z,0
2018-07-20T02:02:15.515Z,0
2018-07-20T02:03:15.246Z,0
2018-07-20T02:04:15.492Z,0
2018-07-20T02:05:15.482Z,0
2018-07-20T02:06:15.479Z,0
2018-07-20T02:07:15.473Z,0
2018-07-20T02:08:15.208Z,0
2018-07-20T02:09:15.209Z,0
2018-07-20T02:10:15.196Z,0
2018-07-20T02:11:15.443Z,0
2018-07-20T02:12:15.182Z,0
2018-07-20T02:13:15.212Z,0
2018-07-20T02:14:15.161Z,0
2018-07-20T02:15:15.415Z,0
2018-07-20T02:16:15.149Z,0
2018-07-20T02:17:15.153Z,0
2018-07-20T02:18:15.140Z,0
2018-07-20T02:19:15.394Z,0
2018-07-20T02:20:15.125Z,0
2018-07-20T02:21:15.363Z,0
2018-07-20T02:22:15.364Z,0
2018-07-20T02:23:15.125Z,0
2018-07-20T02:24:15.345Z,0
2018-07-20T02:25:14.835Z,0
2018-07-20T02:26:15.344Z,0
2018-07-20T02:27:15.332Z,0
2018-07-20T02:28:14.803Z,0
2018-07-20T02:29:15.312Z,0
2018-07-20T02:30:15.312Z,0
2018-07-20T02:31:15.047Z,0
2018-07-20T02:32:15.038Z,0
2018-07-20T02:33:15.033Z,0
2018-07-20T02:34:15.023Z,0
2018-07-20T02:35:15.273Z,0
2018-07-20T02:36:15.005Z,0
2018-07-20T02:37:15.260Z,0
2018-07-20T02:38:15.242Z,0
2018-07-20T02:39:15.233Z,0
2018-07-20T02:40:15.232Z,0
2018-07-20T02:41:14.965Z,0
2018-07-20T02:42:15.211Z,4
2018-07-20T02:43:14.956Z,4
2018-07-20T02:44:14.682Z,4
2018-07-20T02:45:15.191Z,0
2018-07-20T02:46:15.184Z,4
2018-07-20T02:47:14.922Z,4
2018-07-20T02:48:15.174Z,4
2018-07-20T02:49:14.901Z,4
2018-07-20T02:50:14.898Z,4
2018-07-20T02:51:14.891Z,8
2018-07-20T02:52:14.886Z,4
2018-07-20T02:53:15.144Z,8
2018-07-20T02:54:15.125Z,8
2018-07-20T02:55:15.114Z,8
2018-07-20T02:56:14.861Z,8
2018-07-20T02:57:14.842Z,12
2018-07-20T02:58:14.577Z,16
2018-07-20T02:59:15.091Z,20
2018-07-20T03:00:15.070Z,20
2018-07-20T03:01:14.810Z,20
2018-07-20T03:02:15.077Z,24
2018-07-20T03:03:14.542Z,28
2018-07-20T03:04:14.275Z,36
2018-07-20T03:05:15.039Z,40
2018-07-20T03:06:15.029Z,44
2018-07-20T03:07:14.762Z,52
2018-07-20T03:08:15.101Z,56
2018-07-20T03:09:15.075Z,60
2018-07-20T03:10:14.743Z,72
2018-07-20T03:11:14.731Z,76
2018-07-20T03:12:14.733Z,88
2018-07-20T03:13:14.980Z,92
2018-07-20T03:14:14.711Z,100
2018-07-20T03:15:14.702Z,112
2018-07-20T03:16:14.181Z,124
2018-07-20T03:17:14.686Z,136
2018-07-20T03:18:14.944Z,144
2018-07-20T03:19:14.927Z,160
2018-07-20T03:20:14.925Z,172
2018-07-20T03:21:14.844Z,184
2018-07-20T03:22:14.660Z,200
2018-07-20T03:23:14.908Z,216
2018-07-20T03:24:14.895Z,232
2018-07-20T03:25:14.363Z,248
2018-07-20T03:26:14.885Z,268
2018-07-20T03:27:14.861Z,284
2018-07-20T03:28:14.598Z,304
2018-07-20T03:29:14.844Z,324
2018-07-20T03:30:14.606Z,344
2018-07-20T03:31:14.582Z,364
2018-07-20T03:32:14.859Z,388
2018-07-20T03:33:14.815Z,412
2018-07-20T03:34:14.820Z,436
2018-07-20T03:35:14.803Z,460
2018-07-20T03:36:14.549Z,488
2018-07-20T03:37:14.531Z,512
2018-07-20T03:38:14.791Z,540
2018-07-20T03:39:14.772Z,568
2018-07-20T03:40:14.766Z,596
2018-07-20T03:41:14.508Z,624
2018-07-20T03:42:14.234Z,656
2018-07-20T03:43:14.743Z,684
2018-07-20T03:44:14.736Z,716
2018-07-20T03:45:14.736Z,752
2018-07-20T03:46:14.462Z,784
2018-07-20T03:47:14.452Z,820
2018-07-20T03:48:14.697Z,852
2018-07-20T03:49:14.446Z,892
2018-07-20T03:50:14.690Z,928
2018-07-20T03:51:14.694Z,964
2018-07-20T03:52:14.242Z,1000
2018-07-20T03:53:14.673Z,1040
2018-07-20T03:54:14.671Z,1080
2018-07-20T03:55:14.155Z,1120
2018-07-20T03:56:14.642Z,1164
2018-07-20T03:57:14.667Z,1204
2018-07-20T03:58:14.630Z,1248
2018-07-20T03:59:14.357Z,1288
2018-07-20T04:00:14.094Z,1328
2018-07-20T04:01:14.348Z,1372
2018-07-20T04:02:14.595Z,1412
2018-07-20T04:03:14.588Z,1460
2018-07-20T04:04:14.325Z,1500
2018-07-20T04:05:14.315Z,1544
2018-07-20T04:06:14.309Z,1584
2018-07-20T04:07:14.302Z,1632
2018-07-20T04:08:14.293Z,1676
2018-07-20T04:09:14.545Z,1720
2018-07-20T04:10:14.397Z,1760
2018-07-20T04:11:14.531Z,1800
2018-07-20T04:12:14.522Z,1844
2018-07-20T04:13:13.997Z,1880
2018-07-20T04:14:14.245Z,1920
2018-07-20T04:15:14.249Z,1964
2018-07-20T04:16:14.235Z,2000
2018-07-20T04:17:14.488Z,2044
2018-07-20T04:18:14.475Z,2084
2018-07-20T04:19:14.467Z,2120
2018-07-20T04:20:14.200Z,2160
2018-07-20T04:21:14.457Z,2196
2018-07-20T04:22:14.191Z,2232
2018-07-20T04:23:14.440Z,2264
2018-07-20T04:24:14.175Z,2296
2018-07-20T04:25:14.422Z,2332
2018-07-20T04:26:13.899Z,2360
2018-07-20T04:27:14.150Z,2392
2018-07-20T04:28:14.408Z,2424
2018-07-20T04:29:14.134Z,2456
2018-07-20T04:30:14.386Z,2484
2018-07-20T04:31:14.128Z,2512
2018-07-20T04:32:14.122Z,2544
2018-07-20T04:33:14.364Z,2572
2018-07-20T04:34:14.104Z,2596
2018-07-20T04:35:13.841Z,2624
2018-07-20T04:36:14.090Z,2652
2018-07-20T04:37:14.089Z,2684
2018-07-20T04:38:13.821Z,2712
2018-07-20T04:39:14.333Z,2736
2018-07-20T04:40:14.325Z,2768
2018-07-20T04:41:14.315Z,2784
2018-07-20T04:42:14.046Z,2808
2018-07-20T04:43:14.300Z,2832
2018-07-20T04:44:13.779Z,2856
2018-07-20T04:45:14.025Z,2876
2018-07-20T04:46:14.279Z,2908
2018-07-20T04:47:14.271Z,2920
2018-07-20T04:48:14.008Z,2948
2018-07-20T04:49:14.005Z,2968
2018-07-20T04:50:14.265Z,2992
2018-07-20T04:51:14.248Z,3012
2018-07-20T04:52:13.724Z,3036
2018-07-20T04:53:13.977Z,3060
2018-07-20T04:54:13.980Z,3092
2018-07-20T04:55:14.227Z,3116
2018-07-20T04:56:14.213Z,3140
2018-07-20T04:57:14.203Z,3168
2018-07-20T04:58:13.688Z,3200
2018-07-20T04:59:13.936Z,3224
2018-07-20T05:00:13.930Z,3256
2018-07-20T05:01:13.925Z,3288
2018-07-20T05:02:13.916Z,3316
2018-07-20T05:03:14.165Z,3348
2018-07-20T05:04:14.159Z,3380
2018-07-20T05:05:14.157Z,3416
2018-07-20T05:06:13.637Z,3440
2018-07-20T05:07:13.882Z,3476
2018-07-20T05:08:13.880Z,3504
2018-07-20T05:09:14.135Z,3544
2018-07-20T05:10:14.130Z,3680
2018-07-20T05:11:13.862Z,3952
2018-07-20T05:12:14.123Z,4136
2018-07-20T05:13:13.599Z,4052
2018-07-20T05:14:13.584Z,3896
2018-07-20T05:15:13.837Z,3728
2018-07-20T05:16:14.084Z,3728
2018-07-20T05:17:14.079Z,3760
2018-07-20T05:18:14.082Z,3788
2018-07-20T05:19:14.077Z,3820
2018-07-20T05:20:13.809Z,3844
2018-07-20T05:21:13.818Z,3892
2018-07-20T05:22:14.059Z,3924
2018-07-20T05:23:13.800Z,3960
2018-07-20T05:24:13.937Z,3996
2018-07-20T05:25:14.038Z,4032
2018-07-20T05:26:13.777Z,4060
2018-07-20T05:27:14.032Z,4096
2018-07-20T05:28:14.034Z,4132
2018-07-20T05:29:14.017Z,4164
2018-07-20T05:30:13.759Z,4196
2018-07-20T05:31:14.052Z,4224
2018-07-20T05:32:14.015Z,4252
2018-07-20T05:33:13.995Z,4280
2018-07-20T05:34:13.999Z,4304
2018-07-20T05:35:13.999Z,4324
2018-07-20T05:36:13.984Z,4340
2018-07-20T05:37:13.981Z,4348
2018-07-20T05:38:14.288Z,4360
2018-07-20T05:39:13.976Z,4372
2018-07-20T05:40:13.200Z,4380
2018-07-20T05:41:13.705Z,4392
2018-07-20T05:42:13.711Z,4404
2018-07-20T05:43:13.696Z,4408
2018-07-20T05:44:14.107Z,4404
2018-07-20T05:45:13.702Z,4412
2018-07-20T05:46:13.688Z,4428
2018-07-20T05:47:13.936Z,4440
2018-07-20T05:48:13.675Z,4452
2018-07-20T05:49:13.922Z,4464
2018-07-20T05:50:13.932Z,4480
2018-07-20T05:51:13.915Z,4492
2018-07-20T05:52:13.655Z,4500
2018-07-20T05:53:13.903Z,4520
2018-07-20T05:54:13.904Z,4536
2018-07-20T05:55:13.645Z,4548
2018-07-20T05:56:13.636Z,4568
2018-07-20T05:57:13.890Z,4584
2018-07-20T05:58:13.631Z,4600
2018-07-20T05:59:13.877Z,4620
2018-07-20T06:00:13.873Z,4636
2018-07-20T06:01:13.356Z,4644
2018-07-20T06:02:13.872Z,4660
2018-07-20T06:03:13.612Z,4668
2018-07-20T06:04:13.848Z,4676
2018-07-20T06:05:13.599Z,4688
2018-07-20T06:06:13.853Z,4692
2018-07-20T06:07:13.593Z,4696
2018-07-20T06:08:13.943Z,4692
2018-07-20T06:09:13.862Z,4684
2018-07-20T06:10:13.843Z,4684
2018-07-20T06:11:13.836Z,4676
2018-07-20T06:12:13.831Z,4656
2018-07-20T06:13:13.580Z,4620
2018-07-20T06:14:13.879Z,4580
2018-07-20T06:15:13.567Z,4484
2018-07-20T06:16:13.562Z,4568
2018-07-20T06:17:13.811Z,4648
2018-07-20T06:18:13.810Z,4732
2018-07-20T06:19:13.032Z,4764
2018-07-20T06:20:13.294Z,4788
2018-07-20T06:21:13.803Z,4808
2018-07-20T06:22:13.862Z,4832
2018-07-20T06:23:13.809Z,4860
2018-07-20T06:24:13.792Z,4888
2018-07-20T06:25:13.787Z,4916
2018-07-20T06:26:13.784Z,4944
2018-07-20T06:27:13.523Z,4972
2018-07-20T06:28:13.516Z,5004
2018-07-20T06:29:13.776Z,5024
2018-07-20T06:30:13.513Z,5052
2018-07-20T06:31:13.255Z,5072
2018-07-20T06:32:13.247Z,5088
2018-07-20T06:33:13.512Z,5112
2018-07-20T06:34:13.757Z,5148
2018-07-20T06:35:13.501Z,5204
2018-07-20T06:36:13.747Z,5228
2018-07-20T06:37:13.773Z,5236
2018-07-20T06:38:13.487Z,5312
2018-07-20T06:39:13.750Z,5336
2018-07-20T06:40:13.482Z,5468
2018-07-20T06:41:13.738Z,5760
2018-07-20T06:42:13.743Z,6836
2018-07-20T06:43:13.477Z,12752
2018-07-20T06:44:13.724Z,16128
2018-07-20T06:45:13.725Z,15240
2018-07-20T06:46:13.724Z,11772
2018-07-20T06:47:13.208Z,11136
2018-07-20T06:48:13.463Z,13584
2018-07-20T06:49:13.466Z,19840
2018-07-20T06:50:13.456Z,26368
2018-07-20T06:51:13.705Z,27776
2018-07-20T06:52:13.717Z,25376
2018-07-20T06:53:13.453Z,30272
2018-07-20T06:54:13.449Z,33888
2018-07-20T06:55:13.452Z,25120
2018-07-20T06:56:13.699Z,19104
2018-07-20T06:57:13.186Z,20928
2018-07-20T06:58:13.187Z,19840
2018-07-20T06:59:13.445Z,19968
2018-07-20T07:00:13.185Z,33600
2018-07-20T07:01:13.701Z,42496
2018-07-20T07:02:13.717Z,43264
2018-07-20T07:03:13.705Z,43040
2018-07-20T07:04:13.444Z,45312
2018-07-20T07:05:13.762Z,48384
2018-07-20T07:06:13.705Z,47200
2018-07-20T07:07:13.698Z,45120
2018-07-20T07:08:13.193Z,44704
2018-07-20T07:09:13.457Z,46016
2018-07-20T07:10:13.706Z,45632
2018-07-20T07:11:13.463Z,44480
2018-07-20T07:12:13.725Z,46624
2018-07-20T07:13:13.462Z,47968
2018-07-20T07:14:13.738Z,46688
2018-07-20T07:15:13.989Z,46016
2018-07-20T07:16:13.485Z,42848
2018-07-20T07:17:13.750Z,40416
2018-07-20T07:18:13.743Z,41504
2018-07-20T07:19:13.231Z,47296
2018-07-20T07:20:13.491Z,47744
2018-07-20T07:21:12.984Z,45248
2018-07-20T07:22:13.909Z,46080
2018-07-20T07:23:13.767Z,45440
2018-07-20T07:24:13.786Z,43360
2018-07-20T07:25:13.526Z,45152
2018-07-20T07:26:13.793Z,47168
2018-07-20T07:27:13.538Z,46656
2018-07-20T07:28:13.281Z,46656
2018-07-20T07:29:13.092Z,44512
2018-07-20T07:30:13.810Z,43008
2018-07-20T07:31:13.559Z,47808
2018-07-20T07:32:13.827Z,48704
2018-07-20T07:33:13.618Z,47456
2018-07-20T07:34:13.577Z,49184
2018-07-20T07:35:13.843Z,50400
2018-07-20T07:36:13.595Z,51296
2018-07-20T07:37:13.880Z,50464
2018-07-20T07:38:13.877Z,50336
2018-07-20T07:39:13.363Z,51872
2018-07-20T07:40:13.623Z,53056
2018-07-20T07:41:13.888Z,54688
2018-07-20T07:42:13.837Z,55200
2018-07-20T07:43:13.914Z,55168
2018-07-20T07:44:13.922Z,55616
2018-07-20T07:45:13.929Z,53824
2018-07-20T07:46:13.933Z,51232
2018-07-20T07:47:13.694Z,50304
2018-07-20T07:48:13.966Z,49440
2018-07-20T07:49:14.012Z,44960
2018-07-20T07:50:13.762Z,31520
2018-07-20T07:51:13.720Z,15840
2018-07-20T07:52:14.009Z,9364
2018-07-20T07:53:14.001Z,8892
2018-07-20T07:54:14.010Z,9204
2018-07-20T07:55:13.775Z,9516
2018-07-20T07:56:14.030Z,9400
2018-07-20T07:57:13.518Z,9516
2018-07-20T07:58:13.785Z,9392
2018-07-20T07:59:13.535Z,9364
2018-07-20T08:00:13.553Z,9420
2018-07-20T08:01:13.819Z,9380
2018-07-20T08:02:13.819Z,9800
2018-07-20T08:03:14.497Z,10200
2018-07-20T08:04:13.843Z,10276
2018-07-20T08:05:14.110Z,10464
2018-07-20T08:06:14.117Z,10660
2018-07-20T08:07:13.863Z,11132
2018-07-20T08:08:14.133Z,10976
2018-07-20T08:09:13.885Z,11096
2018-07-20T08:10:13.868Z,11280
2018-07-20T08:11:13.640Z,10968
2018-07-20T08:12:13.915Z,10652
2018-07-20T08:13:13.920Z,10356
2018-07-20T08:14:13.919Z,10680
2018-07-20T08:15:14.194Z,10964
2018-07-20T08:16:14.195Z,10748
2018-07-20T08:17:13.944Z,10928
2018-07-20T08:18:14.222Z,11236
2018-07-20T08:19:13.697Z,11360
2018-07-20T08:20:13.962Z,11796
2018-07-20T08:21:14.228Z,12012
2018-07-20T08:22:14.234Z,12156
2018-07-20T08:23:14.239Z,12388
2018-07-20T08:24:14.242Z,11856
2018-07-20T08:25:14.251Z,11908
2018-07-20T08:26:13.485Z,11548
2018-07-20T08:27:14.265Z,11196
2018-07-20T08:28:14.271Z,10832
2018-07-20T08:29:14.018Z,10596
2018-07-20T08:30:14.288Z,10296
2018-07-20T08:31:14.291Z,10104
2018-07-20T08:32:14.038Z,9896
2018-07-20T08:33:14.298Z,9808
2018-07-20T08:34:14.298Z,8836
2018-07-20T08:35:14.301Z,8852
2018-07-20T08:36:14.304Z,8252
2018-07-20T08:37:14.307Z,8288
2018-07-20T08:38:14.314Z,8152
2018-07-20T08:39:14.315Z,8064
2018-07-20T08:40:14.068Z,7988
2018-07-20T08:41:14.488Z,7796
2018-07-20T08:42:14.075Z,7644
2018-07-20T08:43:14.076Z,7636
2018-07-20T08:44:14.079Z,7576
2018-07-20T08:45:14.090Z,7468
2018-07-20T08:46:13.831Z,7404
2018-07-20T08:47:14.096Z,7388
2018-07-20T08:48:14.102Z,7432
2018-07-20T08:49:14.365Z,7368
2018-07-20T08:50:14.375Z,7268
2018-07-20T08:51:13.848Z,7248
2018-07-20T08:52:14.371Z,7396
2018-07-20T08:53:14.117Z,7624
2018-07-20T08:54:14.458Z,7824
2018-07-20T08:55:14.130Z,8040
2018-07-20T08:56:14.391Z,8168
2018-07-20T08:57:14.388Z,8248
2018-07-20T08:58:14.133Z,8596
2018-07-20T08:59:14.322Z,8956
2018-07-20T09:00:14.402Z,9256
2018-07-20T09:01:14.155Z,9612
2018-07-20T09:02:14.447Z,10160
2018-07-20T09:03:14.176Z,10584
2018-07-20T09:04:14.159Z,10792
2018-07-20T09:05:13.908Z,11008
2018-07-20T09:06:14.429Z,11348
2018-07-20T09:07:14.443Z,11668
2018-07-20T09:08:14.172Z,11960
2018-07-20T09:09:14.182Z,11748
2018-07-20T09:10:14.439Z,11668
2018-07-20T09:11:14.445Z,12016
2018-07-20T09:12:14.449Z,12180
2018-07-20T09:13:14.200Z,11988
2018-07-20T09:14:14.458Z,12912
2018-07-20T09:15:14.472Z,13036
2018-07-20T09:16:14.205Z,13464
2018-07-20T09:17:14.478Z,13536
2018-07-20T09:18:14.216Z,13284
2018-07-20T09:19:14.215Z,13204
2018-07-20T09:20:14.223Z,13172
2018-07-20T09:21:14.238Z,13360
2018-07-20T09:22:14.486Z,13432
2018-07-20T09:23:14.239Z,13028
2018-07-20T09:24:14.241Z,12316
2018-07-20T09:25:13.989Z,11844
2018-07-20T09:26:14.513Z,11504
2018-07-20T09:27:14.256Z,11384
2018-07-20T09:28:14.596Z,11236
2018-07-20T09:29:14.269Z,11092
2018-07-20T09:30:14.515Z,11260
2018-07-20T09:31:14.518Z,11596
2018-07-20T09:32:14.522Z,11752
2018-07-20T09:33:14.530Z,11496
2018-07-20T09:34:15.024Z,10948
2018-07-20T09:35:14.289Z,10584
2018-07-20T09:36:14.543Z,10040
2018-07-20T09:37:14.288Z,9496
2018-07-20T09:38:14.287Z,9320
2018-07-20T09:39:14.548Z,9104
2018-07-20T09:40:14.550Z,8840
2018-07-20T09:41:14.559Z,8816
2018-07-20T09:42:14.558Z,8868
2018-07-20T09:43:14.572Z,8880
2018-07-20T09:44:14.579Z,9200
2018-07-20T09:45:14.575Z,9244
2018-07-20T09:46:14.314Z,9100
2018-07-20T09:47:14.314Z,8864
2018-07-20T09:48:14.589Z,8800
2018-07-20T09:49:14.067Z,8528
2018-07-20T09:50:14.336Z,8388
2018-07-20T09:51:14.078Z,8324
2018-07-20T09:52:14.079Z,8224
2018-07-20T09:53:14.080Z,7764
2018-07-20T09:54:14.601Z,7960
2018-07-20T09:55:14.600Z,8088
2018-07-20T09:56:14.344Z,8252
2018-07-20T09:57:14.358Z,8452
2018-07-20T09:58:14.351Z,8732
2018-07-20T09:59:14.613Z,8920
2018-07-20T10:00:14.362Z,8832
2018-07-20T10:01:14.626Z,8900
2018-07-20T10:02:14.630Z,9144
2018-07-20T10:03:14.642Z,9060
2018-07-20T10:04:14.116Z,9280
2018-07-20T10:05:14.555Z,9544
2018-07-20T10:06:14.119Z,9208
2018-07-20T10:07:14.125Z,9212
2018-07-20T10:08:14.652Z,9188
2018-07-20T10:09:14.127Z,8840
2018-07-20T10:10:14.397Z,8940
2018-07-20T10:11:14.399Z,8764
2018-07-20T10:12:14.659Z,8584
2018-07-20T10:13:14.659Z,8260
2018-07-20T10:14:14.671Z,8388
2018-07-20T10:15:14.416Z,8348
2018-07-20T10:16:14.666Z,8060
2018-07-20T10:17:14.416Z,7824
2018-07-20T10:18:14.678Z,7504
2018-07-20T10:19:14.752Z,7324
2018-07-20T10:20:14.433Z,7132
2018-07-20T10:21:14.173Z,6908
2018-07-20T10:22:14.693Z,6780
2018-07-20T10:23:14.689Z,6664
2018-07-20T10:24:14.456Z,6544
2018-07-20T10:25:14.448Z,6456
2018-07-20T10:26:14.701Z,6440
2018-07-20T10:27:14.145Z,6512
2018-07-20T10:28:14.727Z,6656
2018-07-20T10:29:14.720Z,7024
2018-07-20T10:30:14.727Z,7424
2018-07-20T10:31:14.733Z,8020
2018-07-20T10:32:14.215Z,8952
2018-07-20T10:33:14.487Z,9736
2018-07-20T10:34:14.838Z,10188
2018-07-20T10:35:14.743Z,10508
2018-07-20T10:36:14.484Z,10512
2018-07-20T10:37:14.494Z,10244
2018-07-20T10:38:14.753Z,9852
2018-07-20T10:39:14.756Z,9748
2018-07-20T10:40:14.758Z,9840
2018-07-20T10:41:14.249Z,10392
2018-07-20T10:42:14.771Z,11340
2018-07-20T10:43:14.739Z,11800
2018-07-20T10:44:14.777Z,12060
2018-07-20T10:45:14.531Z,12064
2018-07-20T10:46:14.527Z,11704
2018-07-20T10:47:14.530Z,11580
2018-07-20T10:48:14.802Z,11576
2018-07-20T10:49:14.541Z,11472
2018-07-20T10:50:14.288Z,10860
2018-07-20T10:51:14.802Z,10724
2018-07-20T10:52:14.406Z,10808
2018-07-20T10:53:14.303Z,10920
2018-07-20T10:54:14.822Z,11060
2018-07-20T10:55:14.824Z,10852
2018-07-20T10:56:14.835Z,10444
2018-07-20T10:57:14.833Z,10156
2018-07-20T10:58:14.577Z,10496
2018-07-20T10:59:14.620Z,10304
2018-07-20T11:00:14.850Z,10664
2018-07-20T11:01:14.341Z,10780
2018-07-20T11:02:14.861Z,10608
2018-07-20T11:03:14.859Z,10320
2018-07-20T11:04:14.877Z,9548
2018-07-20T11:05:14.363Z,9296
2018-07-20T11:06:14.885Z,9164
2018-07-20T11:07:14.882Z,9072
2018-07-20T11:08:14.632Z,9304
2018-07-20T11:09:14.899Z,9336
2018-07-20T11:10:14.898Z,9288
2018-07-20T11:11:14.900Z,9488
2018-07-20T11:12:14.909Z,9636
2018-07-20T11:13:14.912Z,10056
2018-07-20T11:14:14.402Z,9972
2018-07-20T11:15:14.410Z,9604
2018-07-20T11:16:14.415Z,9344
2018-07-20T11:17:14.709Z,9320
2018-07-20T11:18:14.938Z,9452
2018-07-20T11:19:14.973Z,9116
2018-07-20T11:20:14.991Z,9144
2018-07-20T11:21:14.953Z,9340
2018-07-20T11:22:14.695Z,9468
2018-07-20T11:23:14.953Z,9876
2018-07-20T11:24:14.970Z,9968
2018-07-20T11:25:14.958Z,9704
2018-07-20T11:26:14.965Z,9968
2018-07-20T11:27:14.968Z,9440
2018-07-20T11:28:15.084Z,9220
2018-07-20T11:29:14.973Z,8432
2018-07-20T11:30:14.734Z,8068
2018-07-20T11:31:14.726Z,7476
2018-07-20T11:32:14.990Z,7160
2018-07-20T11:33:14.993Z,7052
2018-07-20T11:34:14.996Z,7092
2018-07-20T11:35:15.003Z,7180
2018-07-20T11:36:15.003Z,7116
2018-07-20T11:37:15.010Z,7236
2018-07-20T11:38:14.757Z,7780
2018-07-20T11:39:15.022Z,7592
2018-07-20T11:40:15.034Z,7508
2018-07-20T11:41:15.025Z,7228
2018-07-20T11:42:15.035Z,7108
2018-07-20T11:43:15.038Z,7028
2018-07-20T11:44:15.041Z,6908
2018-07-20T11:45:15.043Z,6908
2018-07-20T11:46:15.084Z,6908
2018-07-20T11:47:15.046Z,6704
2018-07-20T11:48:14.543Z,6592
2018-07-20T11:49:15.051Z,6444
2018-07-20T11:50:15.087Z,6340
2018-07-20T11:51:14.550Z,6564
2018-07-20T11:52:15.073Z,6764
2018-07-20T11:53:14.813Z,6904
2018-07-20T11:54:14.569Z,7160
2018-07-20T11:55:14.827Z,7320
2018-07-20T11:56:15.102Z,7616
2018-07-20T11:57:15.083Z,7944
2018-07-20T11:58:14.841Z,8328
2018-07-20T11:59:15.090Z,8432
2018-07-20T12:00:14.852Z,8216
2018-07-20T12:01:15.147Z,8076
2018-07-20T12:02:15.110Z,8072
2018-07-20T12:03:14.863Z,8196
2018-07-20T12:04:15.123Z,8304
2018-07-20T12:05:14.608Z,8428
2018-07-20T12:06:15.122Z,8628
2018-07-20T12:07:15.134Z,8944
2018-07-20T12:08:15.129Z,9260
2018-07-20T12:09:15.150Z,9672
2018-07-20T12:10:15.141Z,10072
2018-07-20T12:11:15.153Z,10464
2018-07-20T12:12:15.145Z,10660
2018-07-20T12:13:14.902Z,10452
2018-07-20T12:14:14.906Z,10312
2018-07-20T12:15:15.166Z,9952
2018-07-20T12:16:14.913Z,9448
2018-07-20T12:17:15.178Z,9308
2018-07-20T12:18:15.179Z,9252
2018-07-20T12:19:14.925Z,9584
2018-07-20T12:20:15.192Z,9756
2018-07-20T12:21:14.941Z,9844
2018-07-20T12:22:14.682Z,9444
2018-07-20T12:23:15.200Z,9008
2018-07-20T12:24:15.204Z,9028
2018-07-20T12:25:14.955Z,9324
2018-07-20T12:26:15.212Z,9300
2018-07-20T12:27:15.218Z,9268
2018-07-20T12:28:15.387Z,8928
2018-07-20T12:29:15.234Z,8796
2018-07-20T12:30:15.252Z,8900
2018-07-20T12:31:15.236Z,8900
2018-07-20T12:32:15.247Z,9400
2018-07-20T12:33:14.990Z,9376
2018-07-20T12:34:15.339Z,9448
2018-07-20T12:35:15.267Z,9092
2018-07-20T12:36:15.269Z,8748
2018-07-20T12:37:15.279Z,8448
2018-07-20T12:38:15.015Z,8152
2018-07-20T12:39:15.026Z,7460
2018-07-20T12:40:15.281Z,7520
2018-07-20T12:41:14.806Z,7368
2018-07-20T12:42:14.776Z,7268
2018-07-20T12:43:15.296Z,7144
2018-07-20T12:44:15.299Z,6920
2018-07-20T12:45:15.315Z,6712
2018-07-20T12:46:14.796Z,6404
2018-07-20T12:47:15.315Z,6024
2018-07-20T12:48:15.316Z,5828
2018-07-20T12:49:15.080Z,6004
2018-07-20T12:50:15.318Z,5916
2018-07-20T12:51:15.334Z,5860
2018-07-20T12:52:15.342Z,6016
2018-07-20T12:53:15.086Z,6212
2018-07-20T12:54:15.101Z,6288
2018-07-20T12:55:15.353Z,6252
2018-07-20T12:56:15.103Z,6172
2018-07-20T12:57:15.105Z,6040
2018-07-20T12:58:15.118Z,5836
2018-07-20T12:59:15.372Z,5972
2018-07-20T13:00:15.380Z,6148
2018-07-20T13:01:15.165Z,6160
2018-07-20T13:02:15.386Z,6772
2018-07-20T13:03:15.385Z,6968
2018-07-20T13:04:15.264Z,7236
2018-07-20T13:05:15.149Z,6860
2018-07-20T13:06:15.405Z,7032
2018-07-20T13:07:15.153Z,6984
2018-07-20T13:08:15.164Z,7020
2018-07-20T13:09:15.424Z,7008
2018-07-20T13:10:15.172Z,6896
2018-07-20T13:11:15.430Z,6200
2018-07-20T13:12:15.926Z,5792
2018-07-20T13:13:14.930Z,5656
2018-07-20T13:14:14.670Z,5536
2018-07-20T13:15:15.189Z,5572
2018-07-20T13:16:14.937Z,5876
2018-07-20T13:17:15.201Z,5984
2018-07-20T13:18:15.272Z,5436
2018-07-20T13:19:15.226Z,5416
2018-07-20T13:20:15.476Z,5168
2018-07-20T13:21:15.472Z,4892
2018-07-20T13:22:15.224Z,4916
2018-07-20T13:23:15.236Z,4828
2018-07-20T13:24:15.491Z,4804
2018-07-20T13:25:15.235Z,5012
2018-07-20T13:26:15.262Z,5496
2018-07-20T13:27:15.240Z,5980
2018-07-20T13:28:15.248Z,5712
2018-07-20T13:29:15.511Z,5892
2018-07-20T13:30:15.257Z,5604
2018-07-20T13:31:15.518Z,5388
2018-07-20T13:32:15.262Z,5396
2018-07-20T13:33:15.523Z,5356